This is the latest recevied weather packets stored in our database for station/object KC3SPD-13. If no packets are shown the sender has not sent any weather packets the latest 10 day(s).
| Time | Temp. | Humidity | Pressure | Rain* | Wind** | Luminosity | Snow |
|---|---|---|---|---|---|---|---|
| 1777100404 | 14.44° C | 84% | 960.6 hPa | 0 mm | - | 0 W/m² | - |
| 1777099804 | 14.44° C | 83% | 960.6 hPa | 0 mm | - | 0 W/m² | - |
| 1777094404 | 15.56° C | 81% | 961 hPa | 0 mm | - | 0 W/m² | - |
| 1777090804 | 16.67° C | 76% | 961 hPa | 0 mm | - | 0 W/m² | - |
| 1777090504 | 16.67° C | 76% | 961 hPa | 0 mm | - | 0 W/m² | - |
| 1777089304 | 17.22° C | 76% | 961 hPa | 0 mm | - | 0 W/m² | - |
| 1777088404 | 17.22° C | 75% | 961.1 hPa | 0 mm | - | 0 W/m² | - |
| 1777087204 | 17.78° C | 73% | 961.4 hPa | 0 mm | - | 0 W/m² | - |
| 1777086604 | 17.78° C | 72% | 961.5 hPa | 0 mm | - | 0 W/m² | - |
| 1777085704 | 18.33° C | 70% | 961.4 hPa | 0 mm | - | 0 W/m² | - |
| 1777084204 | 18.89° C | 67% | 961.7 hPa | 0 mm | - | 0 W/m² | - |
| 1777083004 | 19.44° C | 65% | 961.7 hPa | 0 mm | - | 0 W/m² | - |
| 1777080004 | 20.56° C | 61% | 961.1 hPa | 0 mm | - | 0 W/m² | - |
| 1777079704 | 20.56° C | 61% | 961.1 hPa | 0 mm | - | 0 W/m² | - |
| 1777079104 | 20.56° C | 60% | 960.9 hPa | 0 mm | - | 0 W/m² | - |
| 1777078504 | 21.67° C | 58% | 960.8 hPa | 0 mm | - | 0 W/m² | - |
| 1777070704 | 26.11° C | 39% | 959.9 hPa | 0 mm | - | 0 W/m² | - |
| 1777069204 | 26.11° C | 39% | 959.9 hPa | 0 mm | - | 0 W/m² | - |
| 1777068004 | 26.67° C | 36% | 959.8 hPa | 0 mm | - | 0 W/m² | - |
| 1777065304 | 26.67° C | 35% | 959.6 hPa | 0 mm | - | 0 W/m² | - |
| 1777064704 | 26.67° C | 34% | 959.7 hPa | 0 mm | - | 0 W/m² | - |
| 1777064104 | 26.67° C | 35% | 959.8 hPa | 0 mm | - | 0 W/m² | - |
| 1777062603 | 27.78° C | 35% | 959.8 hPa | 0 mm | - | 0 W/m² | - |
| 1777061404 | 27.78° C | 38% | 959.9 hPa | 0 mm | - | 0 W/m² | - |
| 1777060804 | 27.22° C | 38% | 960 hPa | 0 mm | - | 0 W/m² | - |
* Rain latest hour (hover to see other rain measurements)
** Current wind speed in m/s (hover to see current wind gust speed)